• Join FlightAware (Why Join?)
  • Login
  • US Flag 
08:55AM EDT


 

Airport Tracker/Info


-or-


 

Live Flight TrackerFlight Track Log ✈ TAM3774 ✈ 11-May-2013 ✈ SBSP / CGH - SBCG / CGR

Flight Track Log - Related Links

Times and Time Zones

All times are in EDT time to prevent confusion due to time zone crossing. See the TAM3774 flight status page for this flight to view local times or setup timezone preferences in your user account.

Time Position Orientation Groundspeed Altitude Reporting Facility
EDT Latitude Longitude Course Direction KTS MPH feet Rate Location/Type
07:57PM -23.6670 -46.6560 143° Southeast 195 224 3,800  Level FlightAware
07:58PM -23.6600 -46.7240 276° West 210 242 5,800 1,920 Climbing FlightAware
07:59PM -23.6580 -46.7450 276° West 212 244 6,200 1,200 Climbing FlightAware
07:59PM -23.6650 -46.7720 254° West 244 281 6,700 1,320 Climbing FlightAware
07:59PM -23.6750 -46.8030 251° West 282 325 7,300 2,160 Climbing FlightAware
08:00PM -23.6890 -46.8440 250° West 290 334 8,700 2,940 Climbing FlightAware
08:00PM -23.7000 -46.8790 251° West 293 337 10,000 2,400 Climbing FlightAware
08:01PM -23.7090 -46.9150 255° West 313 360 10,700 1,440 Climbing FlightAware
08:01PM -23.7000 -46.9480 287° West 337 388 11,100 1,860 Climbing FlightAware
08:02PM -23.6720 -47.0100 296° West 353 406 12,600 2,400 Climbing FlightAware
08:03PM -23.6380 -47.0820 297° West 363 418 14,500 2,280 Climbing FlightAware
08:03PM -23.6090 -47.1480 296° West 373 429 15,900 2,100 Climbing FlightAware
08:04PM -23.5780 -47.2180 296° West 383 441 17,300 2,040 Climbing FlightAware
08:05PM -23.5430 -47.2970 296° West 392 451 18,800 1,920 Climbing FlightAware
08:05PM -23.5120 -47.3680 295° West 399 459 20,100 1,800 Climbing FlightAware
08:06PM -23.4840 -47.4540 290° West 405 466 21,400 1,620 Climbing FlightAware
08:07PM -23.4650 -47.5150 289° West 410 472 22,300 1,800 Climbing FlightAware
08:07PM -23.4350 -47.6140 288° West 415 478 23,800 1,680 Climbing FlightAware
08:08PM -23.4040 -47.7020 291° West 419 482 24,900 1,380 Climbing FlightAware
08:09PM -23.3720 -47.7800 294° West 428 493 25,800 1,380 Climbing FlightAware
08:10PM -23.3370 -47.8700 293° West 430 495 26,900 1,260 Climbing FlightAware
08:10PM -23.3050 -47.9520 293° West 440 506 27,600 1,260 Climbing FlightAware
08:11PM -23.2730 -48.0340 293° West 440 506 28,600 1,380 Climbing FlightAware
08:12PM -23.2390 -48.1230 293° West 442 509 29,600 1,200 Climbing FlightAware
08:12PM -23.2050 -48.2090 293° West 452 520 30,300 1,020 Climbing FlightAware
08:13PM -23.1690 -48.3020 293° West 454 522 31,100 1,320 Climbing FlightAware
08:14PM -23.1350 -48.3880 293° West 450 518 32,200 1,620 Climbing FlightAware
08:14PM -23.0990 -48.4800 293° West 439 505 33,400 1,680 Climbing FlightAware
08:15PM -23.0670 -48.5620 293° West 430 495 34,600 1,560 Climbing FlightAware
08:16PM -23.0360 -48.6410 293° West 426 490 35,500 960 Climbing FlightAware
08:17PM -23.0040 -48.7210 293° West 423 487 36,000 300 Climbing FlightAware
08:17PM -22.9710 -48.8070 293° West 422 486 36,000 180 Level FlightAware
08:18PM -22.9390 -48.8860 294° West 422 486 36,300 540 Climbing FlightAware
08:19PM -22.9040 -48.9730 294° West 426 490 36,800 900 Climbing FlightAware
08:19PM -22.8730 -49.0520 293° West 420 483 37,600 840 Climbing FlightAware
08:20PM -22.8400 -49.1370 293° West 421 484 38,000 240 Climbing FlightAware
08:21PM -22.8080 -49.2150 294° West 418 481 38,000  Level FlightAware
08:21PM -22.7780 -49.2920 293° West 417 480 38,000  Level FlightAware
08:22PM -22.7430 -49.3800 293° West 417 480 38,000  Level FlightAware
08:23PM -22.7120 -49.4570 294° West 417 480 38,000  Level FlightAware
08:24PM -22.6780 -49.5420 293° West 417 480 38,000  Level FlightAware
08:24PM -22.6480 -49.6180 293° West 417 480 38,000  Level FlightAware
08:25PM -22.6170 -49.6950 294° West 417 480 38,000  Level FlightAware
08:26PM -22.5810 -49.7830 294° West 416 479 38,000  Level FlightAware
08:26PM -22.5510 -49.8580 293° West 415 478 38,000  Level FlightAware
08:27PM -22.5170 -49.9420 294° West 414 476 38,000  Level FlightAware
08:28PM -22.4870 -50.0160 294° West 414 476 38,000  Level FlightAware
08:28PM -22.4560 -50.0920 294° West 413 475 38,000  Level FlightAware
08:29PM -22.4200 -50.1800 294° West 413 475 38,000  Level FlightAware
08:30PM -22.3860 -50.2630 294° West 415 478 38,000  Level FlightAware
08:31PM -22.3540 -50.3410 294° West 415 478 38,000  Level FlightAware
08:31PM -22.3190 -50.4280 293° West 415 478 38,000  Level FlightAware
08:32PM -22.2900 -50.4990 294° West 415 478 38,000  Level FlightAware
08:33PM -22.2570 -50.5790 294° West 415 478 38,000  Level FlightAware
08:33PM -22.2260 -50.6540 294° West 415 478 38,000  Level FlightAware
08:34PM -22.1920 -50.7370 294° West 415 478 38,000  Level FlightAware
08:35PM -22.1580 -50.8210 294° West 416 479 38,000  Level FlightAware
08:35PM -22.1300 -50.8890 294° West 415 478 38,000  Level FlightAware
08:36PM -22.0950 -50.9730 294° West 415 478 38,000  Level FlightAware
08:37PM -22.0590 -51.0590 294° West 415 478 38,000  Level FlightAware
08:38PM -22.0280 -51.1350 294° West 417 480 38,000  Level FlightAware
08:38PM -21.9930 -51.2180 294° West 416 479 38,000  Level FlightAware
08:39PM -21.9590 -51.2990 294° West 417 480 38,000  Level FlightAware
08:40PM -21.9280 -51.3740 294° West 418 481 38,000  Level FlightAware
08:40PM -21.8940 -51.4570 294° West 419 482 38,000  Level FlightAware
08:41PM -21.8650 -51.5260 294° West 418 481 38,000  Level FlightAware
08:42PM -21.8300 -51.6100 294° West 417 480 38,000  Level FlightAware
08:42PM -21.7930 -51.6970 295° West 414 476 38,000  Level FlightAware
08:43PM -21.7620 -51.7710 294° West 413 475 38,000  Level FlightAware
08:44PM -21.7280 -51.8520 294° West 411 473 38,000  Level FlightAware
08:45PM -21.6960 -51.9270 295° West 410 472 38,000  Level FlightAware
08:45PM -21.6670 -51.9970 294° West 410 472 38,000  Level FlightAware
08:46PM -21.6300 -52.0840 295° West 410 472 38,000  Level FlightAware
08:47PM -21.5980 -52.1610 294° West 411 473 38,000  Level FlightAware
08:47PM -21.5660 -52.2340 295° West 410 472 38,000  Level FlightAware
08:48PM -21.5300 -52.3200 294° West 410 472 38,000  Level FlightAware
08:49PM -21.4950 -52.4030 294° West 410 472 38,000  Level FlightAware
08:49PM -21.4630 -52.4780 295° West 409 471 38,000  Level FlightAware
08:50PM -21.4320 -52.5510 295° West 409 471 38,000  Level FlightAware
08:51PM -21.3970 -52.6330 295° West 409 471 38,000  Level FlightAware
08:51PM -21.3680 -52.7000 295° West 410 472 38,000  Level FlightAware
08:52PM -21.3340 -52.7800 295° West 411 473 38,000  Level FlightAware
08:53PM -21.2970 -52.8670 295° West 411 473 38,000  Level FlightAware
08:54PM -21.2650 -52.9400 295° West 411 473 38,000 -960 Level FlightAware
08:54PM -21.2310 -53.0190 295° West 406 467 36,700 -2,100 Descending FlightAware
08:55PM -21.1980 -53.0950 295° West 404 465 35,100 -1,740 Descending FlightAware
08:56PM -21.1580 -53.1910 294° West 403 464 34,000 -720 Descending FlightAware
08:57PM -21.1320 -53.2530 294° West 403 464 34,000  Level FlightAware
08:57PM -21.1060 -53.3150 294° West 403 464 34,000 -4,080 Level FlightAware
08:58PM -21.0600 -53.4150 296° West 392 451 28,300 -4,980 Descending FlightAware
08:59PM -21.0250 -53.4960 295° West 389 448 26,600 -1,380 Descending FlightAware
09:00PM -20.9880 -53.5830 294° West 387 445 26,000 -420 Descending FlightAware
09:00PM -20.9630 -53.6430 294° West 387 445 26,000  Level FlightAware
09:01PM -20.9380 -53.7020 294° West 387 445 26,000  Level FlightAware
09:02PM -20.9130 -53.7620 294° West 387 445 26,000  Level FlightAware
09:03PM -20.8820 -53.8360 294° West 387 445 26,000  Level FlightAware
09:03PM -20.8640 -53.8810 293° West 387 445 26,000  Level FlightAware
09:06PM -20.7541 -54.1021 298° West  Level Estimated
09:07PM -20.7095 -54.1917 298° West  Level Estimated
09:08PM -20.6648 -54.2812 298° West  Level Estimated
09:09PM -20.6201 -54.3707 298° West  Level Estimated
09:10PM -20.5753 -54.4601 298° West  Level Estimated
09:11PM -20.5305 -54.5494 298° West  Level Estimated
09:12PM -20.4856 -54.6387 298° West  Level Estimated
09:13PM -20.4687 -54.6725 298° West  Level Estimated
09:14PM -20.4687 -54.6725 343° North  Level Estimated
09:15PM -20.4687 -54.6725 343° North  Level Estimated
09:16PM -20.4687 -54.6725 343° North  Level Estimated
09:17PM -20.4687 -54.6725 343° North  Level Estimated
09:18PM -20.4687 -54.6725 343° North  Level Estimated
09:19PM -20.4687 -54.6725 343° North  Level Estimated
09:20PM -20.4687 -54.6725 343° North  Level Estimated
09:21PM -20.4687 -54.6725 343° North  Level Estimated
09:22PM -20.4687 -54.6725 343° North  Level Estimated
09:23PM -20.4687 -54.6725 343° North  Level Estimated
09:24PM -20.4687 -54.6725 343° North  Level Estimated
09:25PM -20.4687 -54.6725 343° North  Level Estimated
09:26PM -20.4687 -54.6725 343° North  Level Estimated
09:27PM -20.4687 -54.6725 343° North  Level Estimated
09:28PM -20.4687 -54.6725 343° North  Level Estimated
09:29PM -20.4687 -54.6725 343° North  Level Estimated
09:30PM -20.4687 -54.6725 343° North  Level Estimated
09:31PM -20.4687 -54.6725 343° North  Level Estimated
09:32PM -20.4687 -54.6725 343° North  Level Estimated
09:33PM -20.4687 -54.6725 343° North  Level Estimated
09:34PM -20.4687 -54.6725 343° North  Level Estimated
09:35PM -20.4687 -54.6725 343° North  Level Estimated
09:36PM -20.4687 -54.6725 343° North  Level Estimated
09:37PM -20.4687 -54.6725 343° North  Level Estimated